Time;durP1;ratioP1;P1;durP2;ratioP2;P2;SDS_P1;SDS_P2;PMS_P1;PMS_P2;Temp;Humidity;BMP_temperature;BMP_pressure;BME280_temperature;BME280_humidity;BME280_pressure;Samples;Min_cycle;Max_cycle;Signal;HPM_P1;HPM_P2
2023/06/06 00:00:05;;;;;;;5.00;4.13;;;16.40;1.00;;;;;;8270054;28;20226;-67
2023/06/06 00:04:06;;;;;;;7.87;4.30;;;16.40;1.00;;;;;;8267569;28;20247;-68
2023/06/06 00:08:07;;;;;;;7.10;4.37;;;16.30;1.00;;;;;;8270783;28;20182;-67
2023/06/06 00:12:12;;;;;;;5.07;4.30;;;16.30;1.00;;;;;;8269905;28;20310;-68
2023/06/06 00:16:14;;;;;;;5.43;4.30;;;16.20;31.90;;;;;;8259348;28;20196;-67
2023/06/06 00:20:16;;;;;;;4.77;4.27;;;16.10;71.00;;;;;;8255584;28;20195;-69
2023/06/06 00:24:18;;;;;;;5.93;4.70;;;16.00;95.00;;;;;;8267839;28;20234;-68
2023/06/06 00:28:19;;;;;;;5.50;4.43;;;16.00;99.90;;;;;;8255538;28;20298;-68
2023/06/06 00:32:20;;;;;;;6.10;4.70;;;15.90;99.90;;;;;;8274337;28;20191;-67
2023/06/06 00:36:21;;;;;;;6.23;4.97;;;15.80;99.90;;;;;;8270691;28;20195;-70
2023/06/06 00:40:25;;;;;;;7.90;4.90;;;15.80;99.90;;;;;;8260570;28;20270;-69
2023/06/06 00:44:25;;;;;;;7.20;5.33;;;15.70;99.90;;;;;;8271377;28;20250;-69
2023/06/06 00:48:27;;;;;;;7.43;4.73;;;15.60;99.90;;;;;;8259014;28;20191;-70
2023/06/06 00:52:28;;;;;;;5.83;4.80;;;15.50;99.90;;;;;;8252330;28;20200;-70
2023/06/06 00:56:30;;;;;;;6.73;4.90;;;15.40;99.90;;;;;;8259828;28;20203;-69
2023/06/06 01:00:34;;;;;;;5.97;4.30;;;15.40;99.90;;;;;;8255120;28;20297;-69
2023/06/06 01:04:43;;;;;;;5.67;4.57;;;15.30;1.00;;;;;;8271762;28;20231;-68
2023/06/06 01:08:47;;;;;;;4.93;4.43;;;15.30;1.00;;;;;;8265674;28;20196;-69
2023/06/06 01:13:06;;;;;;;5.03;4.50;;;15.20;1.00;;;;;;8255970;28;20191;-70
2023/06/06 01:17:09;;;;;;;6.07;4.77;;;15.10;1.00;;;;;;8259409;28;20190;-70
2023/06/06 01:21:10;;;;;;;5.97;4.90;;;15.10;15.20;;;;;;8258119;28;20195;-69
2023/06/06 01:25:12;;;;;;;6.33;5.03;;;15.10;98.80;;;;;;8255930;28;20222;-68
2023/06/06 01:29:13;;;;;;;7.37;5.30;;;15.00;99.90;;;;;;8272794;28;20285;-70
2023/06/06 01:33:31;;;;;;;6.20;5.33;;;14.90;99.90;;;;;;8289435;28;20191;-69
2023/06/06 01:37:38;;;;;;;8.07;6.17;;;14.80;99.90;;;;;;8270378;28;20215;-67
2023/06/06 01:41:41;;;;;;;8.10;6.53;;;14.70;1.00;;;;;;8271849;28;20205;-68
2023/06/06 01:45:49;;;;;;;7.73;6.47;;;14.60;28.10;;;;;;8266516;28;20218;-69
2023/06/06 01:49:51;;;;;;;7.87;6.23;;;14.50;1.00;;;;;;8251049;28;20184;-67
2023/06/06 01:53:53;;;;;;;7.63;5.80;;;14.50;1.00;;;;;;8256682;28;20217;-68
2023/06/06 01:57:55;;;;;;;7.33;6.07;;;14.40;1.00;;;;;;8268739;28;20221;-67
2023/06/06 02:01:56;;;;;;;6.87;6.07;;;14.40;1.00;;;;;;8272718;28;20361;-67
2023/06/06 02:05:57;;;;;;;8.00;6.10;;;14.40;1.00;;;;;;8270317;28;20203;-67
2023/06/06 02:09:58;;;;;;;7.13;6.40;;;14.40;1.00;;;;;;8264226;28;20189;-68
2023/06/06 02:13:59;;;;;;;8.60;6.47;;;14.50;88.80;;;;;;8272899;28;20183;-68
2023/06/06 02:18:01;;;;;;;8.17;6.43;;;14.50;99.90;;;;;;8285379;28;20234;-68
2023/06/06 02:22:02;;;;;;;7.63;6.17;;;14.50;1.00;;;;;;8269859;28;20203;-69
2023/06/06 02:26:03;;;;;;;7.07;6.13;;;14.60;99.90;;;;;;8258065;28;20183;-68
2023/06/06 02:30:09;;;;;;;6.87;6.17;;;14.60;99.90;;;;;;8249251;28;20179;-68
2023/06/06 02:34:10;;;;;;;6.73;6.03;;;14.60;1.00;;;;;;8272293;28;20189;-68
2023/06/06 02:38:11;;;;;;;7.70;6.00;;;14.50;99.90;;;;;;8262712;28;20179;-68
2023/06/06 02:42:14;;;;;;;8.97;6.63;;;14.50;1.00;;;;;;8260531;28;20226;-68
2023/06/06 02:46:15;;;;;;;10.10;6.33;;;14.50;7.20;;;;;;8288292;28;20206;-68
2023/06/06 02:50:16;;;;;;;6.90;6.20;;;14.50;99.90;;;;;;8274952;28;20195;-69
2023/06/06 02:54:20;;;;;;;6.93;5.90;;;14.50;99.90;;;;;;8274854;28;20187;-68
2023/06/06 02:58:29;;;;;;;9.97;6.73;;;14.50;1.00;;;;;;8258764;28;20195;-71
2023/06/06 03:02:31;;;;;;;7.97;6.50;;;14.50;1.00;;;;;;8273972;28;20220;-73
2023/06/06 03:06:41;;;;;;;7.20;6.47;;;14.60;81.70;;;;;;8268544;28;20271;-71
2023/06/06 03:10:45;;;;;;;7.83;6.80;;;14.60;1.00;;;;;;8272192;28;20187;-72
2023/06/06 03:14:49;;;;;;;9.07;7.03;;;14.70;99.90;;;;;;8259963;28;20199;-70
2023/06/06 03:18:53;;;;;;;7.60;6.30;;;14.60;1.00;;;;;;8263750;28;20203;-70
2023/06/06 03:22:55;;;;;;;9.33;7.00;;;14.60;1.00;;;;;;8275572;28;20247;-71
2023/06/06 03:26:56;;;;;;;9.03;7.43;;;14.60;1.00;;;;;;8265704;28;20183;-71
2023/06/06 03:30:58;;;;;;;8.47;7.27;;;14.60;1.00;;;;;;8274436;28;20188;-71
2023/06/06 03:34:59;;;;;;;9.13;7.27;;;14.60;99.90;;;;;;8260598;28;20188;-72
2023/06/06 03:39:00;;;;;;;7.93;7.13;;;14.70;99.90;;;;;;8273132;28;20184;-71
2023/06/06 03:43:02;;;;;;;9.33;8.27;;;14.70;99.90;;;;;;8273650;28;20211;-72
2023/06/06 03:47:03;;;;;;;9.83;7.50;;;14.80;1.00;;;;;;8257850;28;20279;-72
2023/06/06 03:51:04;;;;;;;8.80;7.90;;;14.90;1.00;;;;;;8289247;28;20201;-71
2023/06/06 03:55:10;;;;;;;8.13;7.30;;;14.90;99.90;;;;;;8275032;28;20186;-72
2023/06/06 03:59:12;;;;;;;8.60;7.27;;;15.00;99.90;;;;;;8259889;28;20201;-71
2023/06/06 04:03:13;;;;;;;8.90;7.70;;;15.00;99.90;;;;;;8262823;28;20224;-71
2023/06/06 04:07:14;;;;;;;9.13;8.23;;;15.10;1.00;;;;;;8264943;28;20271;-71
2023/06/06 04:11:15;;;;;;;8.03;7.10;;;15.20;99.90;;;;;;8255805;28;20187;-72
2023/06/06 04:15:16;;;;;;;9.77;8.40;;;15.20;99.90;;;;;;8270497;28;20195;-70
2023/06/06 04:19:17;;;;;;;9.57;8.13;;;15.30;99.90;;;;;;8269702;28;20222;-69
2023/06/06 04:23:19;;;;;;;9.67;8.67;;;15.30;99.90;;;;;;8259377;28;20211;-69
2023/06/06 04:27:23;;;;;;;8.80;7.87;;;15.50;99.90;;;;;;8261219;28;20341;-70
2023/06/06 04:31:25;;;;;;;7.97;7.17;;;15.60;42.00;;;;;;8259059;28;20377;-70
2023/06/06 04:35:28;;;;;;;9.80;7.53;;;15.70;1.00;;;;;;8261578;28;20198;-71
2023/06/06 04:39:39;;;;;;;7.80;7.07;;;15.70;1.00;;;;;;8260455;28;20191;-71
2023/06/06 04:43:43;;;;;;;7.63;6.87;;;15.80;99.90;;;;;;8261143;28;20277;-71
2023/06/06 04:47:44;;;;;;;8.40;7.00;;;15.90;99.90;;;;;;8258406;28;20219;-71
2023/06/06 04:51:46;;;;;;;7.67;6.97;;;16.00;99.90;;;;;;8255110;28;20195;-70
2023/06/06 04:55:47;;;;;;;12.23;9.67;;;16.10;99.90;;;;;;8256875;28;20266;-71
2023/06/06 04:59:54;;;;;;;10.07;8.97;;;16.20;75.00;;;;;;8258476;28;20195;-70
2023/06/06 05:03:55;;;;;;;8.07;7.27;;;16.30;41.00;;;;;;8260020;28;20219;-70
2023/06/06 05:08:00;;;;;;;8.43;7.53;;;16.40;1.00;;;;;;8256133;28;20186;-71
2023/06/06 05:12:01;;;;;;;8.80;7.10;;;16.60;1.00;;;;;;8254985;28;20283;-71
2023/06/06 05:16:03;;;;;;;8.47;7.47;;;16.70;1.00;;;;;;8266346;28;20283;-71
2023/06/06 05:20:08;;;;;;;7.60;6.43;;;16.70;1.00;;;;;;8260773;28;20180;-71
2023/06/06 05:24:18;;;;;;;6.37;5.80;;;16.70;1.00;;;;;;8258114;28;20216;-71
2023/06/06 05:28:20;;;;;;;12.03;8.23;;;16.70;1.00;;;;;;8283800;28;20188;-72
2023/06/06 05:32:21;;;;;;;9.17;7.43;;;16.70;1.00;;;;;;8257928;28;20195;-70
2023/06/06 05:36:22;;;;;;;8.97;8.10;;;16.70;1.00;;;;;;8266635;28;20187;-71
2023/06/06 05:40:23;;;;;;;7.27;6.53;;;16.70;1.00;;;;;;8257887;28;20197;-72
2023/06/06 05:44:24;;;;;;;8.17;6.80;;;16.80;1.00;;;;;;8286860;28;20305;-70
2023/06/06 05:48:25;;;;;;;10.03;8.93;;;16.90;1.00;;;;;;8254872;28;20190;-70
2023/06/06 05:52:26;;;;;;;8.60;7.07;;;17.10;1.00;;;;;;8254341;28;20210;-69
2023/06/06 05:56:27;;;;;;;7.07;6.37;;;17.30;1.00;;;;;;8258167;28;20203;-71
2023/06/06 06:00:30;;;;;;;7.30;6.60;;;17.50;99.90;;;;;;8254168;28;20209;-70
2023/06/06 06:04:34;;;;;;;7.63;6.10;;;17.50;99.90;;;;;;8252551;28;20224;-70
2023/06/06 06:08:36;;;;;;;6.87;6.07;;;17.50;99.90;;;;;;8270588;28;20184;-71
2023/06/06 06:12:37;;;;;;;10.27;7.43;;;17.50;99.90;;;;;;8265649;28;20271;-72
2023/06/06 06:16:38;;;;;;;7.43;6.27;;;17.50;99.90;;;;;;8269675;28;20195;-71
2023/06/06 06:20:39;;;;;;;6.47;5.87;;;17.60;99.90;;;;;;8267436;28;20191;-72
2023/06/06 06:24:40;;;;;;;5.90;5.30;;;17.60;99.90;;;;;;8259880;28;20233;-72
2023/06/06 06:28:41;;;;;;;7.63;6.83;;;17.70;99.90;;;;;;8271461;28;20184;-72
2023/06/06 06:32:44;;;;;;;9.63;8.23;;;17.80;99.90;;;;;;8256353;28;20188;-72
2023/06/06 06:36:45;;;;;;;8.37;7.20;;;17.90;99.90;;;;;;8253693;28;20252;-73
2023/06/06 06:40:46;;;;;;;8.87;8.00;;;18.00;99.90;;;;;;8246744;28;20215;-73
2023/06/06 06:44:48;;;;;;;10.87;9.70;;;18.20;99.90;;;;;;8256202;28;20239;-72
2023/06/06 06:48:50;;;;;;;8.30;7.10;;;18.50;99.90;;;;;;8266396;28;20185;-73
2023/06/06 06:52:56;;;;;;;7.13;6.43;;;18.90;99.90;;;;;;8255049;28;20199;-73
2023/06/06 06:56:57;;;;;;;6.20;5.30;;;19.40;99.90;;;;;;8257920;28;20329;-73
2023/06/06 07:01:03;;;;;;;6.00;5.40;;;19.80;99.90;;;;;;8252860;28;20195;-74
2023/06/06 07:05:17;;;;;;;5.20;4.70;;;20.10;81.80;;;;;;8258213;28;20235;-73
2023/06/06 07:09:20;;;;;;;8.13;7.27;;;20.40;59.20;;;;;;8283772;28;20187;-74
2023/06/06 07:13:24;;;;;;;6.73;5.40;;;20.80;27.40;;;;;;8258175;28;20187;-76
2023/06/06 07:17:26;;;;;;;5.87;5.27;;;20.90;1.00;;;;;;8256852;28;20195;-74
2023/06/06 07:21:27;;;;;;;5.47;4.63;;;21.00;1.00;;;;;;8264051;28;20199;-74
2023/06/06 07:25:31;;;;;;;7.67;4.83;;;21.20;1.00;;;;;;8260195;28;20211;-75
2023/06/06 07:29:33;;;;;;;6.30;4.80;;;21.60;1.00;;;;;;8266972;28;20183;-74
2023/06/06 07:33:36;;;;;;;5.77;4.57;;;21.70;1.00;;;;;;8268664;28;20195;-74
2023/06/06 07:37:37;;;;;;;6.20;4.60;;;21.80;1.00;;;;;;8264139;28;20188;-74
2023/06/06 07:41:39;;;;;;;6.47;3.90;;;21.60;1.00;;;;;;8262686;28;20192;-72
2023/06/06 07:45:40;;;;;;;5.73;3.80;;;21.90;1.00;;;;;;8280758;28;20214;-75
2023/06/06 07:49:43;;;;;;;4.47;4.07;;;22.10;1.00;;;;;;8263106;28;20179;-75
2023/06/06 07:53:44;;;;;;;4.40;3.80;;;22.00;1.00;;;;;;8258453;28;20287;-74
2023/06/06 07:57:45;;;;;;;5.63;4.10;;;21.90;1.00;;;;;;8262983;28;20184;-70
2023/06/06 08:01:47;;;;;;;6.20;5.10;;;21.90;1.00;;;;;;8291730;28;20195;-75
2023/06/06 08:05:48;;;;;;;5.40;4.17;;;21.80;1.00;;;;;;8262018;28;20215;-71
2023/06/06 08:09:49;;;;;;;4.80;4.10;;;21.70;1.00;;;;;;8271581;28;20252;-73
2023/06/06 08:13:50;;;;;;;4.83;4.03;;;21.40;1.00;;;;;;8261046;28;20200;-73
2023/06/06 08:17:54;;;;;;;5.03;4.10;;;21.10;1.00;;;;;;8257001;28;20180;-74
2023/06/06 08:21:55;;;;;;;5.33;4.77;;;20.90;1.00;;;;;;8257156;28;20187;-74
2023/06/06 08:25:57;;;;;;;5.37;3.77;;;20.60;1.00;;;;;;8258805;28;20195;-74
2023/06/06 08:29:59;;;;;;;6.90;4.83;;;20.50;1.00;;;;;;8258462;28;20212;-73
2023/06/06 08:34:00;;;;;;;7.73;4.93;;;20.50;1.00;;;;;;8275150;28;20222;-73
2023/06/06 08:38:02;;;;;;;6.00;4.00;;;20.60;1.00;;;;;;8286163;28;20253;-75
2023/06/06 08:42:07;;;;;;;5.77;4.63;;;20.80;1.00;;;;;;8260467;28;20194;-75
2023/06/06 08:46:08;;;;;;;5.83;4.57;;;21.20;1.00;;;;;;8264326;28;20211;-73
2023/06/06 08:50:13;;;;;;;7.63;4.50;;;21.50;1.00;;;;;;8275971;28;20183;-73
2023/06/06 08:54:16;;;;;;;6.53;5.17;;;22.00;1.00;;;;;;8267044;28;20193;-74
2023/06/06 08:58:17;;;;;;;7.00;4.80;;;22.50;1.00;;;;;;8257609;28;20196;-73
2023/06/06 09:02:18;;;;;;;4.90;4.40;;;22.70;1.00;;;;;;8264350;28;20215;-73
2023/06/06 09:06:22;;;;;;;5.33;4.83;;;22.80;1.00;;;;;;8266498;28;20184;-74
2023/06/06 09:10:23;;;;;;;6.07;4.93;;;22.90;1.00;;;;;;8275185;28;20195;-75
2023/06/06 09:14:34;;;;;;;6.30;4.53;;;22.90;1.00;;;;;;8262011;28;20203;-75
2023/06/06 09:18:35;;;;;;;5.53;5.00;;;22.90;1.00;;;;;;8262746;28;20291;-73
2023/06/06 09:22:50;;;;;;;4.63;4.23;;;22.80;1.00;;;;;;8259873;28;20217;-74
2023/06/06 09:26:51;;;;;;;5.23;4.50;;;22.80;1.00;;;;;;8269253;28;20187;-73
2023/06/06 09:30:52;;;;;;;5.47;4.97;;;22.90;1.00;;;;;;8268708;28;20227;-73
2023/06/06 09:34:54;;;;;;;6.77;4.67;;;22.90;1.00;;;;;;8259207;28;20191;-74
2023/06/06 09:39:11;;;;;;;5.27;4.77;;;22.70;1.00;;;;;;8261734;28;20188;-76
2023/06/06 09:43:22;;;;;;;7.57;6.27;;;22.70;1.00;;;;;;8258910;28;20223;-74
2023/06/06 09:47:23;;;;;;;6.10;5.20;;;22.60;1.00;;;;;;8256806;28;20323;-74
2023/06/06 09:51:25;;;;;;;6.90;6.20;;;22.60;1.00;;;;;;8259840;28;20274;-74
2023/06/06 09:55:26;;;;;;;8.10;5.97;;;22.30;1.00;;;;;;8262689;28;20187;-74
2023/06/06 09:59:29;;;;;;;7.20;6.50;;;22.00;1.00;;;;;;8253338;28;20281;-74
2023/06/06 10:03:37;;;;;;;7.63;6.90;;;21.80;1.00;;;;;;8254777;28;20296;-72
2023/06/06 10:07:41;;;;;;;9.20;6.70;;;21.60;1.00;;;;;;8252952;28;20210;-75
2023/06/06 10:11:43;;;;;;;8.27;6.70;;;21.40;1.00;;;;;;8256795;28;20187;-74
2023/06/06 10:15:52;;;;;;;7.33;6.63;;;21.30;1.00;;;;;;8279868;28;20270;-74
2023/06/06 10:20:00;;;;;;;9.93;6.40;;;21.50;1.00;;;;;;8262299;28;20214;-74
2023/06/06 10:24:02;;;;;;;6.80;6.07;;;21.40;1.00;;;;;;8261189;28;20215;-75
2023/06/06 10:28:18;;;;;;;8.07;6.67;;;21.50;1.00;;;;;;8272678;28;20187;-74
2023/06/06 10:33:08;;;;;;;7.03;6.33;;;21.40;1.00;;;;;;8271778;28;20188;-73
2023/06/06 10:37:21;;;;;;;11.00;7.27;;;21.20;1.00;;;;;;8231281;28;20192;-73
2023/06/06 10:41:22;;;;;;;8.67;7.23;;;21.10;10.30;;;;;;8231462;28;20215;-73
2023/06/06 10:45:45;;;;;;;8.67;7.33;;;20.80;25.10;;;;;;8263602;28;20250;-73
2023/06/06 10:50:11;;;;;;;8.13;6.97;;;20.70;40.90;;;;;;8264031;28;20210;-73
2023/06/06 10:54:27;;;;;;;8.60;6.80;;;20.80;61.50;;;;;;8279776;28;20190;-74
2023/06/06 10:58:28;;;;;;;10.77;6.53;;;21.10;51.80;;;;;;8270056;28;20256;-74
2023/06/06 11:02:36;;;;;;;6.97;6.33;;;21.20;26.70;;;;;;8278553;28;20226;-72
2023/06/06 11:06:38;;;;;;;7.70;6.17;;;21.20;10.10;;;;;;8259382;28;20190;-74
2023/06/06 11:10:48;;;;;;;6.70;5.77;;;21.20;4.40;;;;;;8278844;28;20301;-73
2023/06/06 11:15:30;;;;;;;5.77;5.17;;;21.50;1.00;;;;;;8267515;28;20198;-75
2023/06/06 11:19:33;;;;;;;5.83;5.10;;;22.00;1.00;;;;;;8252247;28;20207;-74
2023/06/06 11:23:44;;;;;;;10.37;6.30;;;22.50;1.00;;;;;;8268201;28;20230;-76
2023/06/06 11:27:45;;;;;;;6.87;5.97;;;22.80;1.00;;;;;;8264147;28;20222;-75
2023/06/06 11:31:47;;;;;;;5.40;4.80;;;22.60;1.00;;;;;;8269320;28;20318;-74
2023/06/06 11:35:53;;;;;;;5.10;4.60;;;22.90;1.00;;;;;;8264622;28;20361;-74
2023/06/06 11:40:11;;;;;;;5.73;4.60;;;23.30;1.00;;;;;;8266685;28;20224;-75
2023/06/06 11:44:17;;;;;;;5.23;4.40;;;23.70;1.00;;;;;;8274517;28;20211;-74
2023/06/06 11:48:25;;;;;;;6.97;5.77;;;24.10;1.00;;;;;;8261734;28;20192;-75
2023/06/06 11:52:26;;;;;;;6.03;5.47;;;24.30;1.00;;;;;;8265169;28;20204;-75
2023/06/06 11:56:28;;;;;;;9.27;5.23;;;24.20;1.00;;;;;;8277579;28;20258;-75
2023/06/06 12:00:29;;;;;;;6.60;6.00;;;24.00;1.00;;;;;;8273097;28;20219;-74
2023/06/06 12:04:31;;;;;;;5.10;4.60;;;23.80;1.00;;;;;;8264744;28;20251;-74
2023/06/06 12:08:38;;;;;;;8.97;6.73;;;23.60;1.00;;;;;;8266080;28;20198;-73
2023/06/06 12:12:48;;;;;;;7.57;6.87;;;23.50;1.00;;;;;;8261424;28;20198;-74
2023/06/06 12:16:49;;;;;;;8.20;7.10;;;23.10;1.00;;;;;;8274366;28;20195;-73
2023/06/06 12:20:50;;;;;;;7.77;6.97;;;22.60;1.00;;;;;;8261663;28;20202;-73
2023/06/06 12:24:52;;;;;;;8.30;7.30;;;22.00;1.00;;;;;;8261538;28;20215;-74
2023/06/06 12:28:59;;;;;;;7.67;6.77;;;21.90;1.00;;;;;;8273926;28;20213;-73
2023/06/06 12:33:04;;;;;;;8.90;5.97;;;22.00;1.00;;;;;;8269103;28;20304;-75
2023/06/06 12:37:05;;;;;;;7.40;5.77;;;22.10;1.00;;;;;;8285412;28;20188;-74
2023/06/06 12:41:06;;;;;;;7.77;5.83;;;22.60;1.00;;;;;;8255630;28;20198;-74
2023/06/06 12:45:13;;;;;;;5.10;4.60;;;23.20;1.00;;;;;;8257247;28;20223;-74
2023/06/06 12:49:14;;;;;;;7.87;4.73;;;23.80;1.00;;;;;;8269756;28;20250;-75
2023/06/06 12:53:17;;;;;;;6.80;5.37;;;24.10;1.00;;;;;;8252024;28;20192;-74
2023/06/06 12:57:18;;;;;;;6.13;5.17;;;24.50;1.00;;;;;;8272314;28;20230;-73
2023/06/06 13:01:19;;;;;;;8.50;5.47;;;24.40;1.00;;;;;;8269098;28;20195;-73
2023/06/06 13:05:21;;;;;;;8.07;5.50;;;23.80;1.00;;;;;;8250949;28;20219;-74
2023/06/06 13:09:23;;;;;;;7.93;6.33;;;23.80;1.00;;;;;;8259602;28;20282;-73
2023/06/06 13:13:24;;;;;;;6.90;6.03;;;23.60;1.00;;;;;;8269584;28;20238;-73
2023/06/06 13:17:25;;;;;;;6.73;6.00;;;23.30;1.00;;;;;;8258268;28;20191;-65
2023/06/06 13:21:30;;;;;;;7.90;6.33;;;23.30;1.00;;;;;;8253953;28;20230;-66
2023/06/06 13:25:32;;;;;;;7.20;6.50;;;23.30;1.00;;;;;;8283058;28;20310;-65
2023/06/06 13:29:35;;;;;;;7.83;6.00;;;23.00;1.00;;;;;;8266331;28;20201;-66
2023/06/06 13:33:36;;;;;;;8.53;6.13;;;22.70;1.00;;;;;;8268407;28;20183;-65
2023/06/06 13:37:37;;;;;;;7.27;6.40;;;22.90;1.00;;;;;;8268457;28;20202;-65
2023/06/06 13:41:42;;;;;;;7.23;5.60;;;23.10;1.00;;;;;;8269964;28;20206;-64
2023/06/06 13:45:42;;;;;;;6.00;5.43;;;23.30;1.00;;;;;;8253133;28;20234;-64
2023/06/06 13:49:44;;;;;;;6.87;6.17;;;23.10;1.00;;;;;;8269697;28;20187;-65
2023/06/06 13:53:45;;;;;;;6.43;5.50;;;22.70;1.00;;;;;;8253021;28;20192;-65
2023/06/06 13:57:52;;;;;;;7.77;6.03;;;22.60;1.00;;;;;;8268848;28;20196;-65
2023/06/06 14:01:53;;;;;;;7.63;6.20;;;22.50;1.00;;;;;;8259051;28;20195;-65
2023/06/06 14:05:54;;;;;;;6.80;6.10;;;22.30;1.00;;;;;;8268056;28;20222;-64
2023/06/06 14:09:55;;;;;;;6.83;6.13;;;22.30;1.00;;;;;;8267121;28;20246;-66
2023/06/06 14:13:57;;;;;;;6.57;5.70;;;22.30;1.00;;;;;;8280806;28;20286;-67
2023/06/06 14:17:58;;;;;;;5.67;5.07;;;22.20;1.00;;;;;;8282695;28;20199;-65
2023/06/06 14:26:22;;;;;;;7.07;4.87;;;22.10;1.00;;;;;;8268120;28;20266;-66
2023/06/06 14:30:23;;;;;;;6.03;4.40;;;22.40;1.00;;;;;;8266566;28;20301;-66
2023/06/06 14:34:24;;;;;;;7.77;4.70;;;22.80;1.00;;;;;;8265634;28;20199;-65
2023/06/06 14:38:28;;;;;;;6.30;4.87;;;23.00;1.00;;;;;;8283665;28;20199;-66
2023/06/06 14:42:29;;;;;;;5.83;4.13;;;23.00;1.00;;;;;;8277533;28;20245;-65
2023/06/06 14:46:30;;;;;;;6.97;4.93;;;22.80;1.00;;;;;;8268789;28;20188;-65
2023/06/06 14:50:40;;;;;;;7.37;4.33;;;22.50;1.00;;;;;;8250996;28;20227;-65
2023/06/06 14:54:43;;;;;;;5.60;4.07;;;22.30;1.00;;;;;;8266927;28;20184;-65
2023/06/06 14:58:45;;;;;;;4.73;4.17;;;22.10;1.00;;;;;;8264919;28;20206;-66
2023/06/06 15:02:46;;;;;;;5.80;3.63;;;22.00;1.00;;;;;;8264772;28;20241;-66
2023/06/06 15:06:46;;;;;;;5.10;3.40;;;21.90;1.00;;;;;;8264032;28;20289;-65
2023/06/06 15:10:48;;;;;;;7.13;3.73;;;21.90;1.00;;;;;;8254019;28;20192;-65
2023/06/06 15:14:48;;;;;;;5.47;3.93;;;21.70;1.00;;;;;;8267998;28;20218;-65
2023/06/06 15:18:49;;;;;;;9.23;4.07;;;21.70;1.00;;;;;;8267083;28;20196;-65
2023/06/06 15:22:50;;;;;;;5.67;3.67;;;21.50;1.00;;;;;;8265779;28;20216;-66
2023/06/06 15:26:57;;;;;;;4.53;4.10;;;21.50;1.00;;;;;;8253528;28;20176;-65
2023/06/06 15:30:58;;;;;;;5.10;4.40;;;21.40;1.00;;;;;;8265750;28;20175;-65
2023/06/06 15:34:59;;;;;;;9.23;4.80;;;21.30;1.00;;;;;;8261626;28;20192;-65
2023/06/06 15:39:04;;;;;;;8.03;4.73;;;21.40;1.00;;;;;;8268510;28;20236;-66
2023/06/06 15:43:05;;;;;;;6.20;4.60;;;21.30;1.00;;;;;;8271324;28;20204;-65
2023/06/06 15:47:06;;;;;;;5.70;5.00;;;21.30;1.00;;;;;;8256470;28;20194;-65
2023/06/06 15:51:07;;;;;;;5.80;5.13;;;21.30;1.00;;;;;;8271553;28;20219;-65
2023/06/06 15:55:16;;;;;;;5.77;4.33;;;21.30;1.00;;;;;;8288845;28;20192;-65
2023/06/06 15:59:17;;;;;;;5.17;4.67;;;21.40;1.00;;;;;;8259712;28;20187;-65
2023/06/06 16:03:18;;;;;;;6.40;5.13;;;21.40;1.00;;;;;;8256686;28;20301;-65
2023/06/06 16:07:19;;;;;;;8.47;5.17;;;21.30;1.00;;;;;;8258076;28;20179;-65
2023/06/06 16:11:21;;;;;;;6.77;5.47;;;21.40;1.00;;;;;;8271863;28;20259;-66
2023/06/06 16:15:22;;;;;;;6.17;4.70;;;21.30;1.00;;;;;;8270449;28;20250;-65
2023/06/06 16:19:23;;;;;;;7.67;5.07;;;21.40;1.00;;;;;;8256479;28;20187;-65
2023/06/06 16:23:24;;;;;;;5.40;4.90;;;21.40;1.00;;;;;;8257184;28;20239;-68
2023/06/06 16:27:25;;;;;;;5.53;4.37;;;21.30;1.00;;;;;;8256950;28;20187;-66
2023/06/06 16:31:26;;;;;;;9.53;5.20;;;21.40;1.00;;;;;;8266506;28;20270;-66
2023/06/06 16:35:27;;;;;;;7.40;5.00;;;21.50;1.00;;;;;;8255347;28;20183;-67
2023/06/06 16:39:28;;;;;;;7.97;5.03;;;21.50;1.00;;;;;;8263860;28;20219;-66
2023/06/06 16:43:35;;;;;;;5.50;4.70;;;21.60;1.00;;;;;;8255647;28;20219;-66
2023/06/06 16:47:36;;;;;;;9.77;4.90;;;21.60;1.00;;;;;;8271695;28;20207;-66
2023/06/06 16:51:40;;;;;;;7.73;4.87;;;21.70;1.00;;;;;;8258898;28;20249;-67
2023/06/06 16:55:44;;;;;;;7.37;4.87;;;21.60;1.00;;;;;;8268370;28;20247;-65
2023/06/06 16:59:45;;;;;;;6.23;4.40;;;21.60;1.00;;;;;;8266198;28;20199;-64
2023/06/06 17:03:46;;;;;;;8.17;4.43;;;21.50;1.00;;;;;;8257817;28;20227;-65
2023/06/06 17:07:47;;;;;;;7.73;5.00;;;21.50;1.00;;;;;;8256601;28;20295;-65
2023/06/06 17:11:48;;;;;;;7.67;5.60;;;21.30;1.00;;;;;;8270380;28;20191;-65
2023/06/06 17:15:49;;;;;;;7.13;5.53;;;21.20;1.00;;;;;;8288501;28;20219;-65
2023/06/06 17:19:53;;;;;;;12.20;8.13;;;21.10;1.00;;;;;;8267345;28;20231;-65
2023/06/06 17:23:57;;;;;;;8.17;5.63;;;21.10;1.00;;;;;;8255864;28;20214;-73
2023/06/06 17:27:58;;;;;;;10.97;5.20;;;21.00;1.00;;;;;;8253910;28;20215;-72
2023/06/06 17:32:02;;;;;;;7.80;6.53;;;20.90;1.00;;;;;;8270485;28;20183;-74
2023/06/06 17:36:04;;;;;;;6.33;4.93;;;20.90;1.00;;;;;;8257428;28;20281;-73
2023/06/06 17:40:06;;;;;;;7.20;4.60;;;20.80;1.00;;;;;;8267047;28;20269;-74
2023/06/06 17:44:07;;;;;;;9.70;4.90;;;20.70;1.00;;;;;;8255376;28;20215;-72
2023/06/06 17:48:08;;;;;;;7.20;4.40;;;20.60;1.00;;;;;;8268915;28;20195;-74
2023/06/06 17:52:12;;;;;;;5.47;4.23;;;20.50;1.00;;;;;;8252968;28;20200;-71
2023/06/06 17:56:13;;;;;;;6.97;4.57;;;20.40;1.00;;;;;;8254292;28;20190;-73
2023/06/06 18:00:15;;;;;;;7.57;4.40;;;20.30;1.00;;;;;;8252768;28;20250;-72
2023/06/06 18:04:19;;;;;;;6.77;4.80;;;20.10;1.00;;;;;;8266517;28;20237;-72
2023/06/06 18:08:20;;;;;;;6.87;5.27;;;19.90;1.00;;;;;;8255110;28;20191;-73
2023/06/06 18:12:22;;;;;;;5.40;4.70;;;19.70;1.00;;;;;;8252665;28;20210;-73
2023/06/06 18:16:23;;;;;;;6.53;4.40;;;19.50;1.00;;;;;;8270617;28;20209;-73
2023/06/06 18:20:24;;;;;;;6.63;4.77;;;19.30;4.30;;;;;;8255685;28;20641;-73
2023/06/06 18:24:25;;;;;;;6.90;4.90;;;19.10;20.70;;;;;;8252391;28;20215;-72
2023/06/06 18:28:26;;;;;;;5.60;4.87;;;19.00;52.20;;;;;;8269709;28;20183;-73
2023/06/06 18:32:27;;;;;;;5.27;4.77;;;18.80;57.60;;;;;;8272278;28;20198;-73
2023/06/06 18:36:28;;;;;;;5.77;4.67;;;18.70;83.30;;;;;;8269484;28;20223;-73
2023/06/06 18:40:29;;;;;;;7.07;5.17;;;18.50;99.90;;;;;;8258772;28;20191;-72
2023/06/06 18:44:31;;;;;;;7.50;5.13;;;18.40;99.90;;;;;;8266552;28;20231;-74
2023/06/06 18:48:33;;;;;;;6.93;5.20;;;18.20;99.90;;;;;;8269238;28;20249;-73
2023/06/06 18:52:36;;;;;;;6.27;5.03;;;18.00;99.90;;;;;;8251541;28;20250;-72
2023/06/06 18:56:37;;;;;;;5.13;4.63;;;17.90;99.90;;;;;;8272721;28;20191;-73
2023/06/06 19:00:38;;;;;;;5.80;5.30;;;17.70;99.90;;;;;;8267566;28;20203;-73
2023/06/06 19:04:39;;;;;;;7.13;5.63;;;17.60;99.90;;;;;;8252346;28;20285;-72
2023/06/06 19:08:41;;;;;;;6.03;4.97;;;17.50;99.90;;;;;;8283864;28;20187;-73
2023/06/06 19:12:45;;;;;;;5.63;5.10;;;17.30;99.90;;;;;;8255881;28;20228;-73
2023/06/06 19:16:50;;;;;;;5.97;5.37;;;17.10;99.90;;;;;;8260556;28;20218;-73
2023/06/06 19:20:53;;;;;;;5.47;4.97;;;17.00;99.90;;;;;;8257242;28;20334;-73
2023/06/06 19:24:55;;;;;;;8.43;5.40;;;16.90;99.90;;;;;;8272474;28;20219;-74
2023/06/06 19:28:59;;;;;;;5.43;4.93;;;16.80;99.90;;;;;;8265679;28;20199;-73
2023/06/06 19:33:02;;;;;;;5.97;4.60;;;16.70;99.90;;;;;;8280164;28;20250;-70
2023/06/06 19:37:07;;;;;;;7.13;5.03;;;16.50;99.90;;;;;;8254373;28;20203;-69
2023/06/06 19:41:08;;;;;;;5.23;4.77;;;16.40;99.90;;;;;;8253385;28;20192;-69
2023/06/06 19:45:13;;;;;;;4.83;4.43;;;16.30;99.90;;;;;;8270016;28;20280;-70
2023/06/06 19:49:15;;;;;;;6.90;5.17;;;16.20;99.90;;;;;;8260943;28;20218;-68
2023/06/06 19:53:16;;;;;;;5.17;4.67;;;16.10;99.90;;;;;;8271219;28;20196;-70
2023/06/06 19:57:17;;;;;;;7.80;4.80;;;16.00;99.90;;;;;;8271890;28;20187;-69
2023/06/06 20:01:19;;;;;;;5.17;4.67;;;15.90;99.90;;;;;;8271806;28;20191;-69
2023/06/06 20:05:20;;;;;;;6.87;5.07;;;15.70;1.00;;;;;;8259528;28;20246;-70
2023/06/06 20:09:24;;;;;;;7.10;5.57;;;15.60;1.00;;;;;;8258807;28;20214;-70
2023/06/06 20:13:25;;;;;;;5.47;4.97;;;15.40;1.00;;;;;;8269811;28;20195;-70
2023/06/06 20:17:26;;;;;;;6.13;5.47;;;15.20;1.00;;;;;;8257755;28;20190;-70
2023/06/06 20:21:27;;;;;;;5.73;5.10;;;15.10;1.00;;;;;;8254022;28;20202;-71
2023/06/06 20:25:31;;;;;;;7.30;5.43;;;14.90;49.80;;;;;;8251540;28;20235;-72
2023/06/06 20:29:32;;;;;;;6.60;5.80;;;14.80;99.90;;;;;;8258447;28;20188;-69
2023/06/06 20:33:33;;;;;;;6.07;5.53;;;14.70;99.90;;;;;;8251255;28;20195;-69
2023/06/06 20:37:36;;;;;;;5.93;5.33;;;14.50;99.90;;;;;;8255378;28;20202;-70
2023/06/06 20:41:38;;;;;;;6.63;5.57;;;14.40;99.90;;;;;;8251613;28;20202;-70
2023/06/06 20:45:40;;;;;;;5.87;5.30;;;14.30;99.90;;;;;;8257363;28;20219;-71
2023/06/06 20:49:41;;;;;;;6.80;5.80;;;14.30;1.00;;;;;;8253049;28;20278;-69
2023/06/06 20:53:42;;;;;;;5.83;5.20;;;14.20;1.00;;;;;;8256024;28;20203;-69
2023/06/06 20:57:43;;;;;;;6.53;5.93;;;14.10;1.00;;;;;;8258768;28;20210;-69
2023/06/06 21:01:48;;;;;;;6.63;6.03;;;14.10;1.00;;;;;;8254246;28;20208;-69
2023/06/06 21:06:00;;;;;;;8.13;6.37;;;14.00;1.00;;;;;;8256330;28;20227;-69
2023/06/06 21:10:02;;;;;;;7.73;6.93;;;13.90;55.80;;;;;;8272553;28;20223;-69
2023/06/06 21:14:03;;;;;;;7.33;6.57;;;13.80;99.90;;;;;;8253150;28;20183;-69
2023/06/06 21:18:07;;;;;;;6.73;6.13;;;13.80;1.00;;;;;;8289100;28;20201;-69